Time;durP1;ratioP1;P1;durP2;ratioP2;P2;SDS_P1;SDS_P2;PMS_P1;PMS_P2;Temp;Humidity;BMP_temperature;BMP_pressure;BME280_temperature;BME280_humidity;BME280_pressure;Samples;Min_cycle;Max_cycle;Signal;HPM_P1;HPM_P2
2022/01/20 00:01:59;;;;;;;;;;;16.10;34.60;;;;;;8335405;28;20374;-53
2022/01/20 00:06:50;;;;;;;;;;;16.20;34.70;;;;;;8335792;28;19960;-54
2022/01/20 00:27:47;;;;;;;;;;;16.10;34.60;;;;;;8338529;28;19948;-54
2022/01/20 00:32:04;;;;;;;;;;;16.20;34.60;;;;;;8335643;28;19917;-54
2022/01/20 00:40:08;;;;;;;;;;;16.10;34.60;;;;;;8332839;28;19929;-54
2022/01/20 00:44:09;;;;;;;;;;;16.10;34.60;;;;;;8334778;28;19918;-56
2022/01/20 00:48:09;;;;;;;;;;;16.10;34.60;;;;;;8334418;28;19921;-54
2022/01/20 00:52:10;;;;;;;;;;;16.10;34.60;;;;;;8333668;28;19967;-53
2022/01/20 00:56:13;;;;;;;;;;;16.10;34.60;;;;;;8334260;28;20394;-53
2022/01/20 01:00:14;;;;;;;;;;;16.10;34.60;;;;;;8333909;28;19968;-55
2022/01/20 01:04:15;;;;;;;;;;;16.10;34.60;;;;;;8333860;28;19921;-54
2022/01/20 01:08:15;;;;;;;;;;;16.10;34.60;;;;;;8333949;28;20374;-52
2022/01/20 01:12:24;;;;;;;;;;;16.10;34.60;;;;;;8333524;28;20274;-52
2022/01/20 01:16:37;;;;;;;;;;;16.10;34.60;;;;;;8333984;28;20237;-52
2022/01/20 01:24:57;;;;;;;;;;;16.10;34.60;;;;;;8335185;28;20032;-54
2022/01/20 01:28:59;;;;;;;;;;;16.10;34.60;;;;;;8333297;28;19913;-54
2022/01/20 01:32:59;;;;;;;;;;;16.10;34.60;;;;;;8332990;28;20297;-52
2022/01/20 01:41:00;;;;;;;;;;;16.10;34.70;;;;;;8333091;28;20251;-55
2022/01/20 01:45:13;;;;;;;;;;;16.10;34.70;;;;;;8332778;28;19917;-52
2022/01/20 01:49:14;;;;;;;;;;;16.10;34.70;;;;;;8331815;28;20341;-54
2022/01/20 01:53:16;;;;;;;;;;;16.10;34.70;;;;;;8332564;28;20015;-51
2022/01/20 01:57:16;;;;;;;;;;;16.10;34.70;;;;;;8332230;28;19921;-55
2022/01/20 02:01:17;;;;;;;;;;;16.10;34.70;;;;;;8331705;28;19917;-54
2022/01/20 02:05:19;;;;;;;;;;;16.00;34.70;;;;;;8331436;28;19929;-52
2022/01/20 02:17:52;;;;;;;;;;;16.10;34.80;;;;;;8331800;28;19923;-55
2022/01/20 02:22:14;;;;;;;;;;;16.00;34.80;;;;;;8332716;28;20385;-54
2022/01/20 02:26:15;;;;;;;;;;;16.00;34.80;;;;;;8331579;28;19952;-55
2022/01/20 02:30:17;;;;;;;;;;;16.00;34.80;;;;;;8331234;28;20008;-55
2022/01/20 02:34:20;;;;;;;;;;;16.00;34.90;;;;;;8330864;28;19925;-55
2022/01/20 02:46:52;;;;;;;;;;;16.00;34.90;;;;;;8330447;28;19966;-55
2022/01/20 02:50:53;;;;;;;;;;;16.00;34.90;;;;;;8330553;28;19913;-54
2022/01/20 02:54:54;;;;;;;;;;;16.00;34.90;;;;;;8330249;28;19975;-55
2022/01/20 02:58:55;;;;;;;;;;;16.00;34.90;;;;;;8324804;28;20388;-55
2022/01/20 03:02:56;;;;;;;;;;;16.00;34.90;;;;;;8325578;28;19928;-54
2022/01/20 03:06:57;;;;;;;;;;;16.00;34.90;;;;;;8329699;28;19917;-52
2022/01/20 03:10:57;;;;;;;;;;;16.00;35.00;;;;;;8330442;28;19923;-56
2022/01/20 03:14:58;;;;;;;;;;;15.90;35.00;;;;;;8330327;28;19921;-54
2022/01/20 03:18:58;;;;;;;;;;;15.90;34.90;;;;;;8329511;28;20370;-54
2022/01/20 03:22:59;;;;;;;;;;;16.00;35.00;;;;;;8330206;28;19960;-54
2022/01/20 03:27:00;;;;;;;;;;;15.90;34.90;;;;;;8330161;28;19921;-54
2022/01/20 03:31:00;;;;;;;;;;;15.90;34.90;;;;;;8329461;28;19925;-53
2022/01/20 03:35:02;;;;;;;;;;;15.90;35.00;;;;;;8330136;28;19952;-55
2022/01/20 03:39:03;;;;;;;;;;;15.90;35.50;;;;;;8329712;28;20365;-56
2022/01/20 03:43:03;;;;;;;;;;;15.90;35.00;;;;;;8329108;28;19921;-52
2022/01/20 03:47:04;;;;;;;;;;;15.90;35.00;;;;;;8329584;28;19924;-54
2022/01/20 03:51:04;;;;;;;;;;;15.90;35.00;;;;;;8329692;28;20290;-54
2022/01/20 03:55:05;;;;;;;;;;;15.90;35.00;;;;;;8329304;28;20350;-54
2022/01/20 03:59:06;;;;;;;;;;;15.90;35.00;;;;;;8329396;28;19955;-55
2022/01/20 04:03:06;;;;;;;;;;;15.90;35.00;;;;;;8329369;28;19921;-55
2022/01/20 04:07:06;;;;;;;;;;;15.90;35.00;;;;;;8328827;28;19917;-55
2022/01/20 04:11:08;;;;;;;;;;;15.90;35.00;;;;;;8329314;28;20822;-51
2022/01/20 04:15:09;;;;;;;;;;;15.90;35.00;;;;;;8334400;28;20297;-54
2022/01/20 04:19:10;;;;;;;;;;;15.90;35.10;;;;;;8334826;28;19925;-55
2022/01/20 04:23:11;;;;;;;;;;;15.80;35.00;;;;;;8335210;28;19924;-55
2022/01/20 04:27:11;;;;;;;;;;;15.80;35.10;;;;;;8335095;28;19924;-55
2022/01/20 04:31:12;;;;;;;;;;;15.90;35.10;;;;;;8332762;28;19920;-55
2022/01/20 04:35:12;;;;;;;;;;;15.90;35.20;;;;;;8335000;28;20345;-56
2022/01/20 04:39:16;;;;;;;;;;;15.90;35.10;;;;;;8334513;28;19925;-52
2022/01/20 04:43:17;;;;;;;;;;;15.90;35.20;;;;;;8334123;28;19917;-56
2022/01/20 05:00:05;;;;;;;;;;;15.90;35.20;;;;;;8334145;28;19980;-53
2022/01/20 05:04:06;;;;;;;;;;;15.80;35.10;;;;;;8332624;28;20251;-53
2022/01/20 05:08:06;;;;;;;;;;;15.90;35.20;;;;;;8333746;28;19917;-55
2022/01/20 05:12:11;;;;;;;;;;;15.90;35.20;;;;;;8333747;28;20289;-53
2022/01/20 05:16:11;;;;;;;;;;;15.90;35.20;;;;;;8333210;28;19919;-54
2022/01/20 05:20:12;;;;;;;;;;;15.90;35.20;;;;;;8333207;28;19921;-55
2022/01/20 05:24:12;;;;;;;;;;;15.80;35.10;;;;;;8332319;28;20020;-56
2022/01/20 05:28:13;;;;;;;;;;;15.90;35.20;;;;;;8332608;28;19921;-53
2022/01/20 05:32:13;;;;;;;;;;;15.90;35.20;;;;;;8332992;28;20373;-52
2022/01/20 05:36:14;;;;;;;;;;;15.80;35.20;;;;;;8332999;28;20000;-55
2022/01/20 05:40:14;;;;;;;;;;;15.90;35.20;;;;;;8332314;28;20441;-54
2022/01/20 05:44:15;;;;;;;;;;;15.90;35.30;;;;;;8332461;28;19917;-55
2022/01/20 05:48:17;;;;;;;;;;;15.90;35.20;;;;;;8332489;28;20358;-54
2022/01/20 05:52:19;;;;;;;;;;;15.90;35.30;;;;;;8331550;28;20312;-55
2022/01/20 05:56:19;;;;;;;;;;;15.90;35.20;;;;;;8332506;28;20431;-52
2022/01/20 06:00:22;;;;;;;;;;;15.90;35.30;;;;;;8331811;28;19925;-55
2022/01/20 06:04:23;;;;;;;;;;;15.90;35.20;;;;;;8331406;28;19975;-54
2022/01/20 06:08:24;;;;;;;;;;;15.90;35.30;;;;;;8332103;28;19952;-53
2022/01/20 06:12:24;;;;;;;;;;;15.90;35.30;;;;;;8331759;28;19914;-53
2022/01/20 06:16:25;;;;;;;;;;;15.90;35.30;;;;;;8331278;28;19921;-53
2022/01/20 06:20:25;;;;;;;;;;;15.90;35.30;;;;;;8331467;28;20007;-55
2022/01/20 06:24:26;;;;;;;;;;;15.90;35.30;;;;;;8331360;28;20353;-54
2022/01/20 06:28:26;;;;;;;;;;;15.80;35.30;;;;;;8330855;28;19956;-55
2022/01/20 06:32:27;;;;;;;;;;;15.90;35.30;;;;;;8331133;28;19920;-55
2022/01/20 06:36:27;;;;;;;;;;;15.90;35.30;;;;;;8331235;28;19975;-53
2022/01/20 06:40:28;;;;;;;;;;;15.80;35.30;;;;;;8330266;28;19952;-56
2022/01/20 06:44:28;;;;;;;;;;;15.90;35.30;;;;;;8330674;28;19923;-53
2022/01/20 06:48:28;;;;;;;;;;;15.90;35.30;;;;;;8330689;28;19913;-54
2022/01/20 06:52:29;;;;;;;;;;;15.80;35.30;;;;;;8330059;28;19921;-55
2022/01/20 06:56:31;;;;;;;;;;;15.80;35.30;;;;;;8330902;28;19933;-54
2022/01/20 07:00:32;;;;;;;;;;;15.80;35.30;;;;;;8330560;28;20328;-55
2022/01/20 07:04:32;;;;;;;;;;;15.90;35.40;;;;;;8330135;28;19921;-54
2022/01/20 07:08:33;;;;;;;;;;;15.90;35.40;;;;;;8330449;28;20309;-53
2022/01/20 07:12:33;;;;;;;;;;;15.90;35.90;;;;;;8330315;28;19917;-53
2022/01/20 07:16:34;;;;;;;;;;;15.80;35.30;;;;;;8329906;28;20004;-52
2022/01/20 07:20:35;;;;;;;;;;;15.80;35.40;;;;;;8330036;28;19923;-54
2022/01/20 07:24:35;;;;;;;;;;;15.80;35.40;;;;;;8330103;28;20306;-54
2022/01/20 07:28:36;;;;;;;;;;;15.80;35.40;;;;;;8329451;28;19917;-55
2022/01/20 07:32:36;;;;;;;;;;;15.80;35.40;;;;;;8329985;28;19921;-54
2022/01/20 07:36:37;;;;;;;;;;;15.90;35.40;;;;;;8329918;28;19925;-54
2022/01/20 07:40:37;;;;;;;;;;;15.80;35.40;;;;;;8329084;28;20267;-51
2022/01/20 07:44:38;;;;;;;;;;;15.80;35.40;;;;;;8329561;28;19921;-54
2022/01/20 07:48:38;;;;;;;;;;;15.90;35.40;;;;;;8332315;28;19963;-56
2022/01/20 07:52:38;;;;;;;;;;;15.90;35.50;;;;;;8335635;28;19991;-55
2022/01/20 07:56:39;;;;;;;;;;;15.80;35.40;;;;;;8336358;28;19925;-52
2022/01/20 08:00:40;;;;;;;;;;;15.90;35.50;;;;;;8335863;28;19921;-52
2022/01/20 08:04:40;;;;;;;;;;;15.90;35.50;;;;;;8327866;28;19925;-55
2022/01/20 08:08:41;;;;;;;;;;;15.80;35.40;;;;;;8303077;28;19917;-53
2022/01/20 08:12:43;;;;;;;;;;;15.80;35.50;;;;;;8302660;28;19917;-55
2022/01/20 08:16:43;;;;;;;;;;;15.80;35.50;;;;;;8302263;28;20411;-55
2022/01/20 08:20:44;;;;;;;;;;;15.80;35.40;;;;;;8302646;28;19925;-55
2022/01/20 08:24:49;;;;;;;;;;;15.80;35.50;;;;;;8302459;28;20012;-55
2022/01/20 08:28:50;;;;;;;;;;;15.80;35.50;;;;;;8301880;28;19921;-54
2022/01/20 08:32:51;;;;;;;;;;;15.90;35.50;;;;;;8302318;28;19984;-55
2022/01/20 08:36:55;;;;;;;;;;;15.80;35.50;;;;;;8301768;28;19925;-54
2022/01/20 08:40:56;;;;;;;;;;;15.80;35.50;;;;;;8302056;28;19941;-52
2022/01/20 08:44:56;;;;;;;;;;;15.80;35.40;;;;;;8301561;28;20365;-54
2022/01/20 08:48:57;;;;;;;;;;;15.80;35.50;;;;;;8301145;28;20271;-53
2022/01/20 08:52:57;;;;;;;;;;;15.90;35.50;;;;;;8301593;28;20004;-52
2022/01/20 08:56:58;;;;;;;;;;;15.90;35.50;;;;;;8301455;28;19932;-54
2022/01/20 09:01:00;;;;;;;;;;;15.80;35.50;;;;;;8299582;28;19922;-54
2022/01/20 09:05:01;;;;;;;;;;;15.90;35.60;;;;;;8301539;28;20302;-55
2022/01/20 09:09:02;;;;;;;;;;;15.90;35.50;;;;;;8301258;28;19972;-53
2022/01/20 09:17:22;;;;;;;;;;;15.90;35.50;;;;;;8307737;28;20289;-55
2022/01/20 09:21:23;;;;;;;;;;;15.90;35.50;;;;;;8300839;28;19937;-54
2022/01/20 09:25:24;;;;;;;;;;;15.80;35.50;;;;;;8299993;28;20361;-54
2022/01/20 09:29:24;;;;;;;;;;;15.90;35.50;;;;;;8300278;28;19917;-54
2022/01/20 09:33:27;;;;;;;;;;;15.90;35.80;;;;;;8300311;28;19957;-54
2022/01/20 09:37:28;;;;;;;;;;;15.90;35.50;;;;;;8299927;28;20492;-56
2022/01/20 09:41:28;;;;;;;;;;;15.90;35.50;;;;;;8300126;28;19917;-55
2022/01/20 09:45:30;;;;;;;;;;;15.90;35.50;;;;;;8300074;28;19922;-55
2022/01/20 09:49:30;;;;;;;;;;;15.90;35.50;;;;;;8299346;28;20271;-55
2022/01/20 09:53:31;;;;;;;;;;;15.90;35.50;;;;;;8299616;28;19925;-54
2022/01/20 09:57:31;;;;;;;;;;;15.90;35.50;;;;;;8299840;28;20336;-53
2022/01/20 10:01:45;;;;;;;;;;;15.90;35.50;;;;;;8299029;28;19963;-56
2022/01/20 10:05:48;;;;;;;;;;;15.90;35.50;;;;;;8299696;28;20425;-55
2022/01/20 10:09:49;;;;;;;;;;;15.90;35.50;;;;;;8298457;28;19918;-55
2022/01/20 10:13:50;;;;;;;;;;;15.90;35.50;;;;;;8298984;28;19964;-55
2022/01/20 10:17:50;;;;;;;;;;;15.90;35.50;;;;;;8299218;28;19932;-55
2022/01/20 10:21:51;;;;;;;;;;;15.90;35.50;;;;;;8298278;28;19917;-55
2022/01/20 10:26:01;;;;;;;;;;;15.90;35.50;;;;;;8298470;28;20391;-54
2022/01/20 10:30:06;;;;;;;;;;;15.90;35.50;;;;;;8298369;28;19917;-53
2022/01/20 10:34:17;;;;;;;;;;;15.90;35.50;;;;;;8297909;28;19960;-56
2022/01/20 10:38:19;;;;;;;;;;;15.90;35.50;;;;;;8298427;28;19948;-54
2022/01/20 10:42:23;;;;;;;;;;;15.90;35.50;;;;;;8298084;28;19948;-54
2022/01/20 10:46:23;;;;;;;;;;;15.90;35.50;;;;;;8297656;28;19941;-53
2022/01/20 10:50:29;;;;;;;;;;;16.00;35.60;;;;;;8297849;28;19921;-52
2022/01/20 10:54:46;;;;;;;;;;;15.90;35.50;;;;;;8297823;28;19924;-55
2022/01/20 10:58:46;;;;;;;;;;;16.00;35.50;;;;;;8297017;28;19925;-53
2022/01/20 11:02:48;;;;;;;;;;;16.00;35.50;;;;;;8297855;28;19921;-55
2022/01/20 11:06:53;;;;;;;;;;;16.00;35.50;;;;;;8296426;28;19921;-54
2022/01/20 11:10:54;;;;;;;;;;;16.00;35.50;;;;;;8297385;28;19917;-54
2022/01/20 11:14:56;;;;;;;;;;;16.00;35.50;;;;;;8297629;28;19933;-53
2022/01/20 11:18:56;;;;;;;;;;;16.00;35.50;;;;;;8296731;28;20455;-51
2022/01/20 11:23:05;;;;;;;;;;;16.00;35.50;;;;;;8296961;28;19925;-54
2022/01/20 11:27:07;;;;;;;;;;;16.00;35.50;;;;;;8297437;28;20392;-55
2022/01/20 11:31:08;;;;;;;;;;;16.00;35.50;;;;;;8296649;28;19943;-54
2022/01/20 11:35:10;;;;;;;;;;;16.00;35.50;;;;;;8297471;28;20468;-54
2022/01/20 11:39:11;;;;;;;;;;;16.00;35.50;;;;;;8297059;28;19936;-55
2022/01/20 11:43:13;;;;;;;;;;;16.00;35.50;;;;;;8296677;28;19923;-54
2022/01/20 11:47:13;;;;;;;;;;;16.10;35.50;;;;;;8296822;28;19917;-51
2022/01/20 11:51:17;;;;;;;;;;;16.10;35.40;;;;;;8297012;28;19921;-55
2022/01/20 11:55:18;;;;;;;;;;;16.10;35.40;;;;;;8296442;28;19944;-54
2022/01/20 11:59:19;;;;;;;;;;;16.10;35.40;;;;;;8296241;28;19980;-52
2022/01/20 12:03:19;;;;;;;;;;;16.10;35.50;;;;;;8297228;28;19976;-53
2022/01/20 12:07:25;;;;;;;;;;;16.10;35.40;;;;;;8296120;28;19968;-54
2022/01/20 12:11:39;;;;;;;;;;;16.10;35.40;;;;;;8296833;28;20016;-51
2022/01/20 12:15:50;;;;;;;;;;;16.10;35.40;;;;;;8296621;28;19917;-53
2022/01/20 12:19:54;;;;;;;;;;;16.20;35.50;;;;;;8328874;28;19933;-53
2022/01/20 12:23:55;;;;;;;;;;;16.10;35.40;;;;;;8329412;28;19923;-53
2022/01/20 12:28:03;;;;;;;;;;;16.10;35.40;;;;;;8328566;28;20279;-54
2022/01/20 12:32:10;;;;;;;;;;;16.10;35.40;;;;;;8329009;28;19943;-55
2022/01/20 12:36:12;;;;;;;;;;;16.10;35.40;;;;;;8333759;28;19921;-55
2022/01/20 12:40:21;;;;;;;;;;;16.10;35.40;;;;;;8334139;28;20019;-55
2022/01/20 12:44:21;;;;;;;;;;;16.10;35.40;;;;;;8334581;28;19913;-55
2022/01/20 12:48:22;;;;;;;;;;;16.10;35.40;;;;;;8334807;28;20006;-55
2022/01/20 12:52:22;;;;;;;;;;;16.10;35.40;;;;;;8333867;28;19932;-54
2022/01/20 12:56:30;;;;;;;;;;;16.20;35.50;;;;;;8334286;28;20392;-52
2022/01/20 13:00:31;;;;;;;;;;;16.10;35.40;;;;;;8333971;28;19943;-52
2022/01/20 13:04:32;;;;;;;;;;;16.20;35.40;;;;;;8333351;28;20263;-56
2022/01/20 13:08:38;;;;;;;;;;;16.10;35.40;;;;;;8334128;28;19960;-54
2022/01/20 13:12:39;;;;;;;;;;;16.10;35.40;;;;;;8336722;28;19952;-54
2022/01/20 13:16:53;;;;;;;;;;;16.10;35.40;;;;;;8332868;28;19922;-55
2022/01/20 13:20:59;;;;;;;;;;;16.10;35.40;;;;;;8333519;28;19999;-55
2022/01/20 13:25:03;;;;;;;;;;;16.20;35.40;;;;;;8332874;28;20400;-53
2022/01/20 13:29:04;;;;;;;;;;;16.20;35.40;;;;;;8333414;28;19921;-52
2022/01/20 13:33:06;;;;;;;;;;;16.20;35.40;;;;;;8332951;28;19917;-52
2022/01/20 13:37:12;;;;;;;;;;;16.20;35.40;;;;;;8332429;28;19932;-51
2022/01/20 13:41:14;;;;;;;;;;;16.20;35.40;;;;;;8333129;28;20404;-55
2022/01/20 13:45:17;;;;;;;;;;;16.20;35.50;;;;;;8332077;28;19921;-54
2022/01/20 13:49:19;;;;;;;;;;;16.20;35.40;;;;;;8332171;28;19971;-56
2022/01/20 13:53:22;;;;;;;;;;;16.20;35.40;;;;;;8332427;28;20388;-55
2022/01/20 13:57:23;;;;;;;;;;;16.20;35.40;;;;;;8332022;28;20393;-54
2022/01/20 14:01:24;;;;;;;;;;;16.20;35.40;;;;;;8331571;28;19925;-54
2022/01/20 14:05:31;;;;;;;;;;;16.20;35.40;;;;;;8330841;28;21204;-53
2022/01/20 14:09:31;;;;;;;;;;;16.20;35.40;;;;;;8332016;28;20008;-54
2022/01/20 14:13:32;;;;;;;;;;;16.20;35.40;;;;;;8331167;28;19921;-52
2022/01/20 14:17:36;;;;;;;;;;;16.20;35.40;;;;;;8331432;28;19968;-54
2022/01/20 14:21:37;;;;;;;;;;;16.20;35.40;;;;;;8331468;28;20285;-51
2022/01/20 14:25:38;;;;;;;;;;;16.20;35.40;;;;;;8331046;28;19970;-52
2022/01/20 14:29:38;;;;;;;;;;;16.20;35.40;;;;;;8331628;28;19927;-54
2022/01/20 14:33:39;;;;;;;;;;;16.20;35.40;;;;;;8331190;28;19916;-55
2022/01/20 14:37:40;;;;;;;;;;;16.20;35.40;;;;;;8330395;28;20294;-51
2022/01/20 14:41:40;;;;;;;;;;;16.20;35.40;;;;;;8331058;28;19924;-55
2022/01/20 14:45:41;;;;;;;;;;;16.20;35.40;;;;;;8330600;28;20366;-54
2022/01/20 14:49:42;;;;;;;;;;;16.20;35.40;;;;;;8330283;28;19919;-55
2022/01/20 14:53:42;;;;;;;;;;;16.20;35.90;;;;;;8312712;28;19917;-55
2022/01/20 14:57:42;;;;;;;;;;;16.20;35.40;;;;;;8329569;28;20004;-52
2022/01/20 15:01:43;;;;;;;;;;;16.20;35.40;;;;;;8330093;28;19917;-54
2022/01/20 15:05:45;;;;;;;;;;;16.10;35.30;;;;;;8330711;28;19921;-51
2022/01/20 15:09:47;;;;;;;;;;;16.20;35.40;;;;;;8330563;28;19917;-53
2022/01/20 15:13:47;;;;;;;;;;;16.20;35.40;;;;;;8329586;28;19917;-55
2022/01/20 15:17:48;;;;;;;;;;;16.20;35.40;;;;;;8333328;28;19932;-54
2022/01/20 15:21:48;;;;;;;;;;;16.20;35.40;;;;;;8330149;28;20000;-55
2022/01/20 15:25:49;;;;;;;;;;;16.20;35.40;;;;;;8322521;28;19918;-52
2022/01/20 15:29:50;;;;;;;;;;;16.20;35.40;;;;;;8318298;28;19921;-51
2022/01/20 15:33:50;;;;;;;;;;;16.20;35.40;;;;;;8329196;28;19966;-54
2022/01/20 15:37:50;;;;;;;;;;;16.20;35.40;;;;;;8317315;28;20048;-54
2022/01/20 15:41:51;;;;;;;;;;;16.10;35.40;;;;;;8315540;28;19964;-56
2022/01/20 15:45:52;;;;;;;;;;;16.10;35.40;;;;;;8327249;28;19948;-55
2022/01/20 15:49:52;;;;;;;;;;;16.20;35.40;;;;;;8328718;28;20357;-55
2022/01/20 15:53:53;;;;;;;;;;;16.10;35.40;;;;;;8329668;28;19970;-54
2022/01/20 15:57:53;;;;;;;;;;;16.10;35.40;;;;;;8326189;28;19991;-53
2022/01/20 16:01:53;;;;;;;;;;;16.20;35.50;;;;;;8329073;28;19917;-54
2022/01/20 16:05:54;;;;;;;;;;;16.20;35.50;;;;;;8327420;28;20309;-53
2022/01/20 16:09:54;;;;;;;;;;;16.10;35.50;;;;;;8330339;28;19952;-51
2022/01/20 16:13:55;;;;;;;;;;;16.10;35.50;;;;;;8334580;28;19917;-53
2022/01/20 16:17:57;;;;;;;;;;;16.10;35.40;;;;;;8329055;28;19949;-52
2022/01/20 16:21:57;;;;;;;;;;;16.10;35.50;;;;;;8314467;28;20266;-53
2022/01/20 16:25:58;;;;;;;;;;;16.10;35.50;;;;;;8334524;28;19917;-53
2022/01/20 16:29:58;;;;;;;;;;;16.10;36.00;;;;;;8314157;28;19917;-53
2022/01/20 16:33:59;;;;;;;;;;;16.10;35.50;;;;;;8325185;28;19913;-51
2022/01/20 16:38:00;;;;;;;;;;;16.10;35.50;;;;;;8333115;28;19925;-54
2022/01/20 16:42:01;;;;;;;;;;;16.10;35.50;;;;;;8333685;28;19917;-54
2022/01/20 16:46:01;;;;;;;;;;;16.10;35.50;;;;;;8322256;28;19925;-53
2022/01/20 16:50:02;;;;;;;;;;;16.10;35.50;;;;;;8331315;28;19943;-55
2022/01/20 16:54:02;;;;;;;;;;;16.10;35.50;;;;;;8332680;28;19924;-55
2022/01/20 16:58:03;;;;;;;;;;;16.10;35.50;;;;;;8330732;28;19921;-52
2022/01/20 17:02:03;;;;;;;;;;;16.10;35.50;;;;;;8331413;28;19917;-54
2022/01/20 17:06:04;;;;;;;;;;;16.10;35.50;;;;;;8332192;28;19944;-52
2022/01/20 17:10:05;;;;;;;;;;;16.10;35.50;;;;;;8333518;28;20366;-54
2022/01/20 17:14:05;;;;;;;;;;;16.10;35.50;;;;;;8333846;28;19948;-54
2022/01/20 17:18:06;;;;;;;;;;;16.10;35.50;;;;;;8333559;28;19921;-55
2022/01/20 17:22:07;;;;;;;;;;;16.10;35.50;;;;;;8331999;28;20251;-55
2022/01/20 17:26:07;;;;;;;;;;;16.10;35.50;;;;;;8333646;28;19948;-55
2022/01/20 17:30:09;;;;;;;;;;;16.10;35.50;;;;;;8332455;28;19928;-54
2022/01/20 17:34:09;;;;;;;;;;;16.10;35.50;;;;;;8332461;28;19928;-55
2022/01/20 17:38:09;;;;;;;;;;;16.10;35.50;;;;;;8332710;28;19925;-55
2022/01/20 17:42:10;;;;;;;;;;;16.10;35.50;;;;;;8332743;28;19914;-54
2022/01/20 17:46:11;;;;;;;;;;;16.10;35.50;;;;;;8332269;28;19917;-53
2022/01/20 17:50:11;;;;;;;;;;;16.10;35.60;;;;;;8332446;28;19917;-56
2022/01/20 17:54:13;;;;;;;;;;;16.10;35.50;;;;;;8332390;28;19924;-52
2022/01/20 17:58:13;;;;;;;;;;;16.10;35.50;;;;;;8331453;28;19933;-53
2022/01/20 18:02:14;;;;;;;;;;;16.10;35.50;;;;;;8332138;28;20281;-53
2022/01/20 18:06:14;;;;;;;;;;;16.10;35.50;;;;;;8331989;28;19921;-54
2022/01/20 18:10:16;;;;;;;;;;;16.10;35.50;;;;;;8331344;28;19921;-53
2022/01/20 18:14:16;;;;;;;;;;;16.10;35.40;;;;;;8331819;28;19918;-54
2022/01/20 18:18:16;;;;;;;;;;;16.10;35.40;;;;;;8331662;28;19921;-55
2022/01/20 18:22:17;;;;;;;;;;;16.10;35.30;;;;;;8331206;28;19917;-54
2022/01/20 18:26:20;;;;;;;;;;;16.10;35.30;;;;;;8331865;28;19940;-53
2022/01/20 18:30:20;;;;;;;;;;;16.10;35.20;;;;;;8331480;28;20293;-54
2022/01/20 18:34:22;;;;;;;;;;;16.10;35.20;;;;;;8330659;28;20058;-53
2022/01/20 18:38:22;;;;;;;;;;;16.10;35.20;;;;;;8331446;28;19968;-50
2022/01/20 18:42:23;;;;;;;;;;;16.10;35.20;;;;;;8331052;28;19913;-55
2022/01/20 18:46:23;;;;;;;;;;;16.10;35.10;;;;;;8330661;28;20449;-54
2022/01/20 18:50:24;;;;;;;;;;;16.10;35.20;;;;;;8331115;28;19917;-54
2022/01/20 18:54:24;;;;;;;;;;;16.10;35.20;;;;;;8330605;28;20393;-54
2022/01/20 18:58:25;;;;;;;;;;;16.10;35.10;;;;;;8329989;28;20404;-53
2022/01/20 19:02:26;;;;;;;;;;;16.10;35.20;;;;;;8330604;28;20120;-55
2022/01/20 19:06:26;;;;;;;;;;;16.10;35.20;;;;;;8330722;28;19929;-52
2022/01/20 19:10:27;;;;;;;;;;;16.10;35.20;;;;;;8330207;28;19918;-55
2022/01/20 19:14:27;;;;;;;;;;;16.10;35.20;;;;;;8330562;28;19917;-55
2022/01/20 19:18:28;;;;;;;;;;;16.10;35.20;;;;;;8330106;28;20377;-55
2022/01/20 19:22:28;;;;;;;;;;;16.10;35.20;;;;;;8329906;28;19921;-55
2022/01/20 19:26:29;;;;;;;;;;;16.10;35.20;;;;;;8330775;28;19924;-55
2022/01/20 19:30:29;;;;;;;;;;;16.10;35.20;;;;;;8330123;28;19917;-54
2022/01/20 19:34:30;;;;;;;;;;;16.10;35.20;;;;;;8329557;28;19918;-54
2022/01/20 19:38:30;;;;;;;;;;;16.10;35.20;;;;;;8329878;28;20356;-53
2022/01/20 19:42:31;;;;;;;;;;;16.10;35.20;;;;;;8329943;28;19933;-55
2022/01/20 19:46:31;;;;;;;;;;;16.10;35.20;;;;;;8335582;28;20007;-55
2022/01/20 19:50:35;;;;;;;;;;;16.10;35.20;;;;;;8336416;28;19923;-55
2022/01/20 19:54:35;;;;;;;;;;;16.10;35.20;;;;;;8336385;28;19921;-55
2022/01/20 19:58:36;;;;;;;;;;;16.10;35.20;;;;;;8335571;28;19925;-56
2022/01/20 20:02:37;;;;;;;;;;;16.10;35.20;;;;;;8335791;28;20014;-54
2022/01/20 20:06:37;;;;;;;;;;;16.10;35.20;;;;;;8336172;28;20409;-55
2022/01/20 20:10:38;;;;;;;;;;;16.10;35.20;;;;;;8334615;28;19925;-54
2022/01/20 20:14:39;;;;;;;;;;;16.10;35.20;;;;;;8335822;28;19971;-51
2022/01/20 20:18:40;;;;;;;;;;;16.10;35.20;;;;;;8335486;28;19936;-53
2022/01/20 20:22:41;;;;;;;;;;;16.10;35.10;;;;;;8334845;28;20012;-50
2022/01/20 20:26:43;;;;;;;;;;;16.10;35.20;;;;;;8335966;28;19928;-53
2022/01/20 20:30:43;;;;;;;;;;;16.10;35.10;;;;;;8335152;28;19964;-53
2022/01/20 20:34:44;;;;;;;;;;;16.10;35.20;;;;;;8334510;28;19917;-53
2022/01/20 20:38:44;;;;;;;;;;;16.00;35.10;;;;;;8334950;28;19927;-55
2022/01/20 20:42:45;;;;;;;;;;;16.10;35.20;;;;;;8334999;28;19917;-56
2022/01/20 20:46:51;;;;;;;;;;;16.10;35.10;;;;;;8334506;28;19917;-54
2022/01/20 20:50:51;;;;;;;;;;;16.10;35.10;;;;;;8335772;28;20366;-53
2022/01/20 20:54:52;;;;;;;;;;;16.10;35.10;;;;;;8333994;28;19914;-51
2022/01/20 20:58:53;;;;;;;;;;;16.00;35.10;;;;;;8334216;28;20482;-53
2022/01/20 21:02:53;;;;;;;;;;;16.10;35.10;;;;;;8334171;28;19978;-53
2022/01/20 21:06:56;;;;;;;;;;;16.00;35.10;;;;;;8333923;28;19992;-54
2022/01/20 21:10:57;;;;;;;;;;;16.00;35.10;;;;;;8334215;28;19963;-54
2022/01/20 21:15:00;;;;;;;;;;;16.00;35.10;;;;;;8334045;28;20289;-52
2022/01/20 21:19:00;;;;;;;;;;;16.10;35.10;;;;;;8333033;28;19922;-54
2022/01/20 21:23:01;;;;;;;;;;;16.00;35.00;;;;;;8333639;28;19980;-53
2022/01/20 21:27:01;;;;;;;;;;;16.00;35.00;;;;;;8333812;28;20285;-52
2022/01/20 21:31:02;;;;;;;;;;;16.00;35.00;;;;;;8332693;28;19918;-51
2022/01/20 21:35:04;;;;;;;;;;;16.00;35.00;;;;;;8333222;28;20007;-54
2022/01/20 21:39:04;;;;;;;;;;;16.00;35.10;;;;;;8332881;28;19925;-53
2022/01/20 21:43:05;;;;;;;;;;;16.00;35.10;;;;;;8332394;28;19921;-53
2022/01/20 21:47:06;;;;;;;;;;;15.90;35.00;;;;;;8333157;28;20419;-54
2022/01/20 21:51:07;;;;;;;;;;;16.00;35.00;;;;;;8332833;28;19924;-54
2022/01/20 21:55:08;;;;;;;;;;;16.00;35.00;;;;;;8332112;28;24591;-53
2022/01/20 21:59:09;;;;;;;;;;;15.90;35.00;;;;;;8332368;28;19921;-55
2022/01/20 22:03:09;;;;;;;;;;;15.90;34.90;;;;;;8332238;28;19967;-52
2022/01/20 22:07:10;;;;;;;;;;;16.00;34.90;;;;;;8331436;28;19924;-49
2022/01/20 22:11:10;;;;;;;;;;;15.90;34.90;;;;;;8331923;28;19917;-51
2022/01/20 22:15:11;;;;;;;;;;;15.90;34.90;;;;;;8332086;28;20012;-54
2022/01/20 22:19:11;;;;;;;;;;;15.90;34.80;;;;;;8331255;28;19979;-54
2022/01/20 22:23:12;;;;;;;;;;;15.90;34.80;;;;;;8331627;28;19913;-53
2022/01/20 22:27:12;;;;;;;;;;;15.90;34.80;;;;;;8331869;28;19917;-53
2022/01/20 22:31:13;;;;;;;;;;;15.90;34.80;;;;;;8330969;28;19925;-54
2022/01/20 22:35:14;;;;;;;;;;;15.90;34.80;;;;;;8331304;28;20340;-53
2022/01/20 22:39:15;;;;;;;;;;;15.90;34.80;;;;;;8331128;28;19921;-53
2022/01/20 22:43:18;;;;;;;;;;;15.90;34.70;;;;;;8330818;28;19921;-51
2022/01/20 22:47:18;;;;;;;;;;;15.90;34.80;;;;;;8330960;28;19918;-52
2022/01/20 22:51:19;;;;;;;;;;;15.90;34.80;;;;;;8330903;28;19996;-54
2022/01/20 22:55:19;;;;;;;;;;;15.80;34.70;;;;;;8330093;28;19917;-50
2022/01/20 22:59:20;;;;;;;;;;;15.90;34.80;;;;;;8330473;28;20377;-53
2022/01/20 23:03:21;;;;;;;;;;;15.90;34.70;;;;;;8330020;28;20340;-54
2022/01/20 23:07:21;;;;;;;;;;;15.80;34.70;;;;;;8329932;28;19917;-53
2022/01/20 23:11:22;;;;;;;;;;;15.80;34.60;;;;;;8329905;28;20366;-52
2022/01/20 23:15:32;;;;;;;;;;;15.80;34.60;;;;;;8330414;28;20413;-52
2022/01/20 23:23:41;;;;;;;;;;;15.80;34.60;;;;;;8330927;28;20381;-51
2022/01/20 23:27:41;;;;;;;;;;;15.80;34.70;;;;;;8333270;28;20352;-52
2022/01/20 23:31:42;;;;;;;;;;;15.80;34.70;;;;;;8329421;28;19925;-52
2022/01/20 23:35:43;;;;;;;;;;;15.80;34.70;;;;;;8330077;28;20308;-51
2022/01/20 23:39:43;;;;;;;;;;;15.80;34.60;;;;;;8330195;28;19960;-52
2022/01/20 23:48:08;;;;;;;;;;;15.80;34.60;;;;;;8332170;28;19945;-53
2022/01/20 23:52:09;;;;;;;;;;;15.70;34.50;;;;;;8329364;28;19964;-54
2022/01/20 23:56:11;;;;;;;;;;;15.70;34.60;;;;;;8329578;28;19924;-53
